Time;durP1;ratioP1;P1;durP2;ratioP2;P2;SDS_P1;SDS_P2;PMS_P1;PMS_P2;Temp;Humidity;BMP_temperature;BMP_pressure;BME280_temperature;BME280_humidity;BME280_pressure;Samples;Min_cycle;Max_cycle;Signal;HPM_P1;HPM_P2
2023/02/06 00:01:24;;;;;;;8.73;5.43;;;30.90;77.10;;;;;;5009019;28;20014;-61
2023/02/06 00:03:51;;;;;;;7.68;4.47;;;31.40;79.20;;;;;;4991589;28;20113;-62
2023/02/06 00:06:19;;;;;;;8.30;4.25;;;31.30;75.00;;;;;;5008880;28;20121;-60
2023/02/06 00:08:46;;;;;;;9.02;4.85;;;31.20;74.60;;;;;;5009677;28;20057;-62
2023/02/06 00:11:15;;;;;;;6.50;4.20;;;31.00;74.00;;;;;;5016313;28;20103;-61
2023/02/06 00:13:44;;;;;;;8.77;4.80;;;30.90;75.80;;;;;;5005865;28;20046;-61
2023/02/06 00:16:30;;;;;;;7.38;4.43;;;31.10;77.20;;;;;;5007813;28;20487;-61
2023/02/06 00:18:59;;;;;;;12.93;6.18;;;31.00;74.80;;;;;;5005190;28;20364;-60
2023/02/06 00:21:28;;;;;;;9.43;4.10;;;31.10;77.90;;;;;;5006976;28;20113;-62
2023/02/06 00:23:57;;;;;;;7.53;4.05;;;31.50;76.10;;;;;;5006396;28;20030;-62
2023/02/06 00:26:26;;;;;;;9.27;3.80;;;32.00;77.30;;;;;;5012421;28;20091;-61
2023/02/06 00:28:53;;;;;;;8.05;3.10;;;32.20;73.00;;;;;;5016224;28;20100;-61
2023/02/06 00:31:21;;;;;;;8.57;2.40;;;32.20;74.40;;;;;;5011473;28;20044;-62
2023/02/06 00:33:48;;;;;;;7.07;3.30;;;32.60;70.70;;;;;;5016364;28;20041;-61
2023/02/06 00:36:16;;;;;;;7.15;2.92;;;32.90;72.60;;;;;;5006793;28;20041;-61
2023/02/06 00:38:43;;;;;;;6.07;2.90;;;33.30;69.90;;;;;;5005808;28;20025;-61
2023/02/06 00:41:10;;;;;;;5.13;2.90;;;33.50;71.00;;;;;;5008714;28;20030;-61
2023/02/06 00:43:38;;;;;;;8.45;2.80;;;33.70;67.40;;;;;;5012063;28;20029;-61
2023/02/06 00:46:05;;;;;;;7.68;2.60;;;33.60;69.50;;;;;;5012790;28;20393;-61
2023/02/06 00:48:32;;;;;;;8.98;2.95;;;33.60;70.10;;;;;;5018041;28;20029;-61
2023/02/06 00:51:00;;;;;;;13.65;2.83;;;33.60;67.10;;;;;;5008701;28;20022;-61
2023/02/06 00:53:27;;;;;;;6.53;3.50;;;33.40;67.50;;;;;;5013065;28;20040;-62
2023/02/06 00:55:55;;;;;;;5.63;2.70;;;33.60;66.90;;;;;;5009561;28;20026;-62
2023/02/06 00:58:22;;;;;;;9.02;2.60;;;33.60;69.00;;;;;;5014217;28;20525;-61
2023/02/06 01:00:51;;;;;;;6.80;2.67;;;33.90;68.70;;;;;;5018894;28;20474;-62
2023/02/06 01:03:18;;;;;;;6.80;2.55;;;33.90;65.10;;;;;;5012841;28;20487;-62
2023/02/06 01:05:46;;;;;;;7.50;2.80;;;33.90;65.50;;;;;;5018994;28;20065;-63
2023/02/06 01:08:13;;;;;;;8.45;3.08;;;33.60;63.30;;;;;;5009639;28;20040;-62
2023/02/06 01:10:42;;;;;;;7.68;2.67;;;33.20;62.50;;;;;;5006355;28;20045;-63
2023/02/06 01:13:11;;;;;;;7.20;2.40;;;33.30;67.60;;;;;;5010092;28;20558;-64
2023/02/06 01:15:38;;;;;;;9.63;2.08;;;33.70;66.20;;;;;;5003196;28;20021;-62
2023/02/06 01:18:05;;;;;;;6.28;2.30;;;33.90;66.40;;;;;;4989268;28;20545;-61
2023/02/06 01:20:33;;;;;;;5.95;2.40;;;34.10;66.10;;;;;;5008118;28;20026;-62
2023/02/06 01:23:01;;;;;;;7.43;2.10;;;33.90;65.80;;;;;;5009480;28;20025;-62
2023/02/06 01:25:28;;;;;;;4.75;2.25;;;34.00;65.30;;;;;;5008026;28;20383;-62
2023/02/06 01:27:55;;;;;;;6.35;3.47;;;34.10;61.60;;;;;;5013369;28;20040;-62
2023/02/06 01:30:23;;;;;;;8.70;2.90;;;33.70;63.20;;;;;;5010312;28;20178;-62
2023/02/06 01:32:50;;;;;;;12.48;3.03;;;33.60;62.60;;;;;;5009922;28;20097;-62
2023/02/06 01:35:17;;;;;;;7.05;3.05;;;33.30;62.60;;;;;;5009297;28;20428;-62
2023/02/06 01:37:45;;;;;;;6.85;3.03;;;33.30;64.30;;;;;;5009811;28;20037;-62
2023/02/06 01:40:15;;;;;;;9.32;2.63;;;33.60;68.30;;;;;;5014272;28;20056;-62
2023/02/06 01:42:43;;;;;;;7.05;2.80;;;33.90;68.40;;;;;;5022054;28;20018;-62
2023/02/06 01:45:26;;;;;;;8.80;3.13;;;34.30;66.00;;;;;;5015840;28;20091;-62
2023/02/06 01:48:01;;;;;;;13.38;4.38;;;34.00;62.30;;;;;;5026505;28;20056;-61
2023/02/06 01:50:31;;;;;;;6.70;3.22;;;33.70;63.60;;;;;;5019831;28;20090;-62
2023/02/06 01:52:58;;;;;;;8.82;2.75;;;33.30;62.90;;;;;;5016740;28;20438;-61
2023/02/06 01:55:26;;;;;;;7.28;2.63;;;33.40;65.60;;;;;;5013506;28;20030;-61
2023/02/06 01:57:53;;;;;;;6.78;2.60;;;33.70;65.20;;;;;;5027275;28;20553;-61
2023/02/06 02:00:21;;;;;;;6.68;3.47;;;33.70;63.40;;;;;;5024748;28;20022;-62
2023/02/06 02:02:49;;;;;;;6.78;2.35;;;33.60;61.80;;;;;;5020461;28;20079;-62
2023/02/06 02:05:17;;;;;;;4.70;2.67;;;33.20;64.30;;;;;;5002041;28;20036;-61
2023/02/06 02:08:17;;;;;;;8.00;2.90;;;33.00;63.90;;;;;;5012122;28;20029;-62
2023/02/06 02:10:45;;;;;;;6.53;2.60;;;32.90;66.90;;;;;;5020269;28;20040;-63
2023/02/06 02:13:12;;;;;;;8.73;2.50;;;33.40;68.20;;;;;;5028446;28;20068;-62
2023/02/06 02:15:43;;;;;;;7.60;3.00;;;34.00;66.70;;;;;;5017634;28;20098;-61
2023/02/06 02:18:30;;;;;;;6.13;2.45;;;34.40;65.00;;;;;;5027264;28;20021;-62
2023/02/06 02:21:44;;;;;;;7.20;2.15;;;34.80;62.30;;;;;;5017145;28;20162;-62
2023/02/06 02:24:47;;;;;;;8.23;2.88;;;34.90;63.60;;;;;;4956836;28;20114;-62
2023/02/06 02:27:54;;;;;;;8.75;2.65;;;34.90;65.40;;;;;;4948485;28;20062;-62
2023/02/06 02:30:27;;;;;;;4.82;2.60;;;34.60;59.40;;;;;;5014049;28;20029;-62
2023/02/06 02:33:15;;;;;;;7.32;2.42;;;34.30;59.30;;;;;;5024570;28;20026;-62
2023/02/06 02:35:48;;;;;;;7.45;2.63;;;34.20;60.30;;;;;;5031578;28;20056;-62
2023/02/06 02:38:48;;;;;;;8.63;3.50;;;33.60;60.90;;;;;;5020046;28;20498;-62
2023/02/06 02:41:39;;;;;;;6.10;2.63;;;33.50;61.10;;;;;;5021932;28;20391;-62
2023/02/06 02:44:26;;;;;;;3.83;2.20;;;33.20;61.00;;;;;;5017847;28;20139;-62
2023/02/06 02:46:57;;;;;;;7.70;2.40;;;33.30;61.40;;;;;;5005999;28;20040;-64
2023/02/06 02:49:28;;;;;;;6.13;2.65;;;33.40;64.10;;;;;;5028901;28;20514;-63
2023/02/06 02:51:56;;;;;;;6.28;2.65;;;34.00;61.60;;;;;;5029841;28;20065;-62
2023/02/06 02:54:24;;;;;;;5.50;2.28;;;34.10;60.40;;;;;;5018658;28;20417;-62
2023/02/06 02:56:52;;;;;;;5.40;2.38;;;34.10;60.60;;;;;;5021492;28;20022;-63
2023/02/06 02:59:35;;;;;;;7.68;2.60;;;34.10;61.30;;;;;;5025541;28;20029;-62
2023/02/06 03:02:17;;;;;;;16.60;2.85;;;34.60;60.50;;;;;;5015428;28;20099;-62
2023/02/06 03:04:53;;;;;;;5.35;2.58;;;34.60;58.90;;;;;;5022396;28;20026;-62
2023/02/06 03:07:38;;;;;;;6.35;2.88;;;34.70;59.50;;;;;;5019098;28;20033;-62
2023/02/06 03:10:27;;;;;;;5.38;2.30;;;34.70;58.00;;;;;;4991687;28;20497;-62
2023/02/06 03:13:06;;;;;;;7.05;2.28;;;34.80;59.80;;;;;;5001738;28;20167;-63
2023/02/06 03:15:46;;;;;;;7.97;2.00;;;35.00;59.80;;;;;;5014749;28;20030;-62
2023/02/06 03:18:24;;;;;;;6.05;1.80;;;35.10;57.00;;;;;;5008808;28;20038;-62
2023/02/06 03:20:52;;;;;;;7.03;2.05;;;34.90;56.80;;;;;;5008523;28;20387;-63
2023/02/06 03:23:26;;;;;;;5.38;1.80;;;35.10;59.10;;;;;;5008547;28;20022;-61
2023/02/06 03:25:57;;;;;;;5.80;2.88;;;35.20;58.30;;;;;;5012501;28;20010;-62
2023/02/06 03:28:33;;;;;;;3.92;1.52;;;35.50;57.80;;;;;;5010437;28;20045;-62
2023/02/06 03:31:06;;;;;;;3.95;1.40;;;35.70;56.70;;;;;;5010107;28;20067;-62
2023/02/06 03:33:43;;;;;;;3.58;1.38;;;35.70;55.10;;;;;;5008678;28;20022;-61
2023/02/06 03:36:15;;;;;;;6.82;1.70;;;35.30;55.10;;;;;;5009029;28;20025;-61
2023/02/06 03:38:46;;;;;;;4.82;1.80;;;35.10;56.70;;;;;;5019261;28;20449;-62
2023/02/06 03:41:15;;;;;;;4.15;1.60;;;35.20;56.50;;;;;;5016658;28;20030;-62
2023/02/06 03:43:52;;;;;;;4.35;1.20;;;35.00;54.60;;;;;;5022903;28;20079;-62
2023/02/06 03:46:20;;;;;;;7.25;2.03;;;34.80;55.50;;;;;;5025435;28;20018;-61
2023/02/06 03:48:56;;;;;;;3.88;1.63;;;34.70;55.40;;;;;;5015659;28;20028;-62
2023/02/06 03:51:36;;;;;;;3.83;1.42;;;34.40;55.50;;;;;;5016318;28;20029;-61
2023/02/06 03:54:05;;;;;;;5.53;1.77;;;33.90;56.10;;;;;;5012356;28;20040;-61
2023/02/06 03:56:57;;;;;;;4.93;1.73;;;33.50;57.20;;;;;;5013887;28;20033;-61
2023/02/06 03:59:25;;;;;;;4.32;1.48;;;33.60;60.70;;;;;;4992212;28;20571;-64
2023/02/06 04:01:56;;;;;;;3.95;1.70;;;34.00;57.50;;;;;;5026567;28;20096;-61
2023/02/06 04:04:28;;;;;;;3.38;1.50;;;34.40;59.30;;;;;;4994147;28;20032;-61
2023/02/06 04:07:02;;;;;;;5.80;1.63;;;34.80;55.40;;;;;;5000229;28;20491;-61
2023/02/06 04:09:29;;;;;;;9.55;2.08;;;34.80;55.20;;;;;;4999657;28;20275;-61
2023/02/06 04:11:57;;;;;;;4.25;1.42;;;34.70;55.90;;;;;;5012675;28;20069;-60
2023/02/06 04:14:24;;;;;;;7.85;1.60;;;34.60;55.20;;;;;;5013344;28;20033;-66
2023/02/06 04:16:51;;;;;;;5.13;1.95;;;34.50;55.20;;;;;;5018848;28;20902;-62
2023/02/06 04:19:19;;;;;;;6.78;1.63;;;34.70;56.50;;;;;;5009285;28;20030;-61
2023/02/06 04:21:46;;;;;;;5.28;1.58;;;34.40;58.90;;;;;;5014830;28;20367;-62
2023/02/06 04:24:13;;;;;;;4.55;1.35;;;33.70;61.20;;;;;;5019441;28;20025;-62
2023/02/06 04:26:41;;;;;;;10.93;1.58;;;33.10;63.90;;;;;;5019844;28;20491;-62
2023/02/06 04:29:08;;;;;;;8.68;2.05;;;32.30;65.80;;;;;;5016792;28;20375;-59
2023/02/06 04:31:35;;;;;;;7.20;1.60;;;32.00;67.20;;;;;;5018379;28;20104;-59
2023/02/06 04:34:03;;;;;;;4.40;1.63;;;31.70;68.70;;;;;;5009697;28;20498;-59
2023/02/06 04:36:30;;;;;;;5.57;1.25;;;31.00;71.00;;;;;;5017848;28;20068;-59
2023/02/06 04:38:57;;;;;;;10.93;1.88;;;30.70;72.70;;;;;;5017784;28;20072;-60
2023/02/06 04:41:25;;;;;;;6.40;1.50;;;30.70;73.50;;;;;;5022627;28;20029;-59
2023/02/06 04:43:52;;;;;;;5.47;1.80;;;30.80;74.90;;;;;;5026908;28;20029;-60
2023/02/06 04:46:19;;;;;;;7.32;1.88;;;31.20;74.40;;;;;;5015754;28;20022;-58
2023/02/06 04:48:47;;;;;;;4.53;1.10;;;31.70;74.40;;;;;;5002164;28;20060;-59
2023/02/06 04:51:14;;;;;;;6.93;1.58;;;31.50;74.30;;;;;;5020980;28;20017;-59
2023/02/06 04:53:42;;;;;;;8.23;1.70;;;31.10;75.30;;;;;;5012876;28;20025;-59
2023/02/06 04:56:11;;;;;;;6.82;1.40;;;30.80;77.10;;;;;;5013882;28;20030;-59
2023/02/06 04:58:39;;;;;;;8.73;1.38;;;30.50;78.30;;;;;;5017409;28;20037;-59
2023/02/06 05:01:07;;;;;;;8.23;1.60;;;30.20;80.50;;;;;;5015020;28;20034;-59
2023/02/06 05:03:34;;;;;;;7.35;2.17;;;30.40;82.50;;;;;;5011578;28;20125;-61
2023/02/06 05:06:03;;;;;;;5.28;1.73;;;30.40;82.60;;;;;;5017603;28;20025;-59
2023/02/06 05:08:31;;;;;;;7.25;1.20;;;30.70;82.80;;;;;;5017498;28;20034;-61
2023/02/06 05:10:58;;;;;;;7.75;1.35;;;30.70;81.40;;;;;;5010537;28;20500;-60
2023/02/06 05:13:26;;;;;;;7.68;1.58;;;30.80;83.50;;;;;;5016024;28;20042;-60
2023/02/06 05:15:53;;;;;;;6.40;1.83;;;30.90;80.80;;;;;;5020517;28;20499;-59
2023/02/06 05:18:20;;;;;;;5.40;1.15;;;30.90;81.00;;;;;;5019249;28;20029;-59
2023/02/06 05:20:48;;;;;;;5.43;1.10;;;30.80;82.00;;;;;;5007266;28;20099;-59
2023/02/06 05:23:15;;;;;;;6.93;1.55;;;31.00;82.10;;;;;;5012102;28;20434;-60
2023/02/06 05:25:42;;;;;;;8.95;1.60;;;31.20;81.40;;;;;;5008617;28;20030;-60
2023/02/06 05:28:10;;;;;;;8.75;1.65;;;31.20;80.90;;;;;;5018329;28;20045;-59
2023/02/06 05:30:37;;;;;;;5.28;1.95;;;31.00;81.10;;;;;;5005651;28;20116;-60
2023/02/06 05:33:05;;;;;;;6.78;1.88;;;30.90;82.20;;;;;;5017076;28;20034;-60
2023/02/06 05:35:32;;;;;;;8.10;1.73;;;30.90;82.70;;;;;;5009438;28;20048;-60
2023/02/06 05:37:59;;;;;;;9.52;2.13;;;30.60;83.30;;;;;;5010582;28;20555;-59
2023/02/06 05:40:27;;;;;;;7.05;1.15;;;30.50;85.00;;;;;;5016743;28;20486;-59
2023/02/06 05:42:55;;;;;;;8.15;1.38;;;30.30;85.30;;;;;;5016512;28;20034;-60
2023/02/06 05:45:23;;;;;;;7.35;1.60;;;30.00;88.20;;;;;;5018771;28;20117;-59
2023/02/06 05:47:53;;;;;;;9.35;1.38;;;30.00;89.50;;;;;;5010378;28;20038;-59
2023/02/06 05:50:20;;;;;;;8.00;1.77;;;29.90;88.70;;;;;;5010977;28;20030;-58
2023/02/06 05:52:48;;;;;;;6.22;1.50;;;29.70;89.10;;;;;;5016120;28;20505;-59
2023/02/06 05:55:17;;;;;;;7.85;1.25;;;29.80;90.10;;;;;;5018597;28;20033;-59
2023/02/06 05:57:44;;;;;;;6.32;1.80;;;30.00;90.20;;;;;;5003108;28;20073;-59
2023/02/06 06:00:13;;;;;;;6.85;1.63;;;30.20;87.80;;;;;;5013247;28;20030;-59
2023/02/06 06:02:40;;;;;;;10.65;2.20;;;30.20;88.00;;;;;;5009615;28;20080;-59
2023/02/06 06:05:08;;;;;;;6.10;1.90;;;30.10;87.70;;;;;;5016241;28;20053;-59
2023/02/06 06:07:35;;;;;;;6.22;1.38;;;30.10;88.50;;;;;;5019450;28;20125;-58
2023/02/06 06:10:05;;;;;;;7.20;1.45;;;30.20;88.60;;;;;;4996695;28;20053;-58
2023/02/06 06:12:32;;;;;;;10.25;1.60;;;30.30;87.20;;;;;;5009113;28;20025;-60
2023/02/06 06:15:00;;;;;;;4.50;1.23;;;30.20;88.10;;;;;;5013929;28;20061;-60
2023/02/06 06:17:27;;;;;;;10.88;1.60;;;30.30;87.10;;;;;;5012008;28;20041;-60
2023/02/06 06:19:54;;;;;;;12.90;1.73;;;30.30;87.10;;;;;;4994109;28;20368;-62
2023/02/06 06:22:22;;;;;;;5.20;1.10;;;30.20;87.30;;;;;;5007350;28;20034;-60
2023/02/06 06:24:49;;;;;;;11.15;2.03;;;30.10;88.60;;;;;;5010011;28;20018;-61
2023/02/06 06:27:16;;;;;;;10.52;2.58;;;30.10;87.60;;;;;;5020350;28;20116;-60
2023/02/06 06:29:44;;;;;;;8.73;1.73;;;29.50;90.50;;;;;;5018376;28;20033;-60
2023/02/06 06:32:11;;;;;;;7.80;1.75;;;29.50;91.20;;;;;;5018467;28;20208;-60
2023/02/06 06:34:38;;;;;;;16.88;2.10;;;29.50;91.40;;;;;;5016464;28;20014;-64
2023/02/06 06:37:06;;;;;;;6.95;1.70;;;29.40;91.60;;;;;;5023088;28;20389;-59
2023/02/06 06:39:33;;;;;;;8.20;1.55;;;29.50;92.10;;;;;;5025844;28;20100;-59
2023/02/06 06:42:03;;;;;;;8.57;1.77;;;29.30;92.50;;;;;;5014861;28;20053;-59
2023/02/06 06:44:31;;;;;;;7.95;1.70;;;29.20;92.90;;;;;;5026106;28;20022;-60
2023/02/06 06:46:58;;;;;;;7.47;1.52;;;29.20;93.50;;;;;;5020773;28;20418;-60
2023/02/06 06:49:25;;;;;;;12.10;2.10;;;29.30;93.70;;;;;;5026374;28;20022;-60
2023/02/06 06:51:52;;;;;;;5.90;1.40;;;29.40;92.90;;;;;;5015563;28;20030;-60
2023/02/06 06:54:21;;;;;;;6.22;1.83;;;29.20;92.70;;;;;;5023043;28;20036;-58
2023/02/06 06:56:48;;;;;;;8.80;1.92;;;29.30;93.00;;;;;;5019677;28;20029;-59
2023/02/06 06:59:16;;;;;;;9.50;1.50;;;29.30;92.90;;;;;;5015695;28;20033;-60
2023/02/06 07:01:43;;;;;;;7.60;2.10;;;29.20;93.10;;;;;;5016769;28;20037;-60
2023/02/06 07:04:10;;;;;;;10.95;1.67;;;29.20;93.30;;;;;;5024560;28;20040;-60
2023/02/06 07:06:38;;;;;;;7.90;1.55;;;28.90;93.90;;;;;;5008355;28;20390;-60
2023/02/06 07:09:05;;;;;;;7.97;2.33;;;28.70;95.10;;;;;;5013579;28;20522;-60
2023/02/06 07:11:32;;;;;;;11.10;1.83;;;28.50;96.30;;;;;;5007351;28;20030;-61
2023/02/06 07:14:00;;;;;;;8.85;1.30;;;28.40;96.90;;;;;;5019972;28;20049;-60
2023/02/06 07:16:27;;;;;;;13.18;2.22;;;28.20;97.10;;;;;;5019252;28;20482;-59
2023/02/06 07:18:54;;;;;;;6.03;1.70;;;28.10;98.10;;;;;;5015945;28;20053;-60
2023/02/06 07:21:22;;;;;;;9.32;2.63;;;27.80;99.00;;;;;;5014523;28;20516;-59
2023/02/06 07:23:49;;;;;;;14.00;2.22;;;27.70;99.70;;;;;;5014791;28;20031;-60
2023/02/06 07:26:16;;;;;;;12.80;2.30;;;27.80;99.60;;;;;;5013097;28;20030;-59
2023/02/06 07:28:44;;;;;;;14.10;2.10;;;27.60;99.90;;;;;;5011011;28;20044;-60
2023/02/06 07:31:11;;;;;;;9.10;1.60;;;27.50;99.90;;;;;;4996779;28;20037;-60
2023/02/06 07:33:38;;;;;;;13.98;1.90;;;27.40;99.90;;;;;;5030618;28;20076;-60
2023/02/06 07:36:13;;;;;;;12.15;1.98;;;27.40;99.90;;;;;;5025331;28;20033;-59
2023/02/06 07:38:41;;;;;;;13.68;2.50;;;27.30;99.90;;;;;;5014366;28;20022;-60
2023/02/06 07:41:08;;;;;;;7.40;3.03;;;27.40;99.90;;;;;;5014146;28;20092;-60
2023/02/06 07:43:36;;;;;;;12.48;2.25;;;27.50;99.90;;;;;;5015978;28;20029;-60
2023/02/06 07:46:05;;;;;;;11.73;2.20;;;27.50;99.90;;;;;;5015922;28;20571;-59
2023/02/06 07:48:32;;;;;;;12.30;2.50;;;27.30;99.90;;;;;;5010426;28;20518;-59
2023/02/06 07:51:09;;;;;;;9.65;2.13;;;27.20;99.90;;;;;;5012256;28;20026;-60
2023/02/06 07:53:37;;;;;;;9.98;2.58;;;27.10;99.90;;;;;;5015906;28;20374;-61
2023/02/06 07:56:13;;;;;;;7.68;1.65;;;27.10;99.90;;;;;;5014125;28;20087;-60
2023/02/06 07:58:40;;;;;;;10.93;2.05;;;26.90;99.90;;;;;;5013467;28;20025;-61
2023/02/06 08:01:08;;;;;;;11.85;1.75;;;26.90;99.90;;;;;;5013739;28;20411;-61
2023/02/06 08:03:36;;;;;;;11.27;1.85;;;26.90;99.90;;;;;;5009219;28;20026;-61
2023/02/06 08:06:14;;;;;;;7.35;1.92;;;26.70;99.90;;;;;;5003411;28;20032;-61
2023/02/06 08:08:42;;;;;;;11.73;1.80;;;26.60;99.90;;;;;;5003996;28;20080;-60
2023/02/06 08:11:13;;;;;;;10.13;1.80;;;26.50;99.90;;;;;;5018911;28;20087;-59
2023/02/06 08:13:42;;;;;;;11.93;1.92;;;26.50;99.90;;;;;;5011724;28;20569;-60
2023/02/06 08:16:21;;;;;;;8.63;2.00;;;26.30;99.90;;;;;;4993809;28;20099;-60
2023/02/06 08:18:49;;;;;;;20.38;2.03;;;26.20;99.90;;;;;;5008971;28;20411;-61
2023/02/06 08:21:19;;;;;;;10.82;1.90;;;26.10;99.90;;;;;;5007447;28;20026;-60
2023/02/06 08:23:52;;;;;;;8.75;2.10;;;26.00;99.90;;;;;;5011328;28;20029;-61
2023/02/06 08:26:20;;;;;;;14.93;2.25;;;25.90;99.90;;;;;;5021386;28;20022;-63
2023/02/06 08:28:50;;;;;;;9.45;2.08;;;25.80;99.90;;;;;;5006718;28;20479;-63
2023/02/06 08:31:27;;;;;;;8.95;1.73;;;25.60;99.90;;;;;;5007767;28;20026;-63
2023/02/06 08:33:55;;;;;;;10.02;2.67;;;25.50;99.90;;;;;;5016177;28;20026;-63
2023/02/06 08:36:24;;;;;;;11.18;1.63;;;25.40;99.90;;;;;;5011856;28;20490;-62
2023/02/06 08:38:52;;;;;;;14.88;2.25;;;25.30;99.90;;;;;;4997161;28;20026;-62
2023/02/06 08:41:24;;;;;;;13.55;2.05;;;25.20;99.90;;;;;;5005201;28;20022;-63
2023/02/06 08:43:54;;;;;;;13.48;2.45;;;25.10;99.90;;;;;;4995368;28;20124;-63
2023/02/06 08:46:23;;;;;;;15.73;1.80;;;25.00;99.90;;;;;;5012985;28;20085;-63
2023/02/06 08:48:56;;;;;;;11.98;1.83;;;24.90;99.90;;;;;;4987754;28;20793;-62
2023/02/06 08:51:26;;;;;;;14.45;2.25;;;24.80;99.90;;;;;;5020316;28;20025;-62
2023/02/06 08:53:58;;;;;;;14.48;2.38;;;24.70;99.90;;;;;;5006444;28;20119;-63
2023/02/06 08:56:26;;;;;;;9.88;1.77;;;24.60;99.90;;;;;;5003914;28;20018;-62
2023/02/06 08:58:54;;;;;;;14.32;2.42;;;24.60;99.90;;;;;;4989698;28;20030;-62
2023/02/06 09:01:21;;;;;;;13.18;2.85;;;24.50;99.90;;;;;;5012444;28;20084;-62
2023/02/06 09:03:49;;;;;;;18.10;2.17;;;24.50;99.90;;;;;;5014509;28;20403;-62
2023/02/06 09:06:16;;;;;;;10.25;1.80;;;24.60;99.90;;;;;;5016070;28;20079;-63
2023/02/06 09:08:44;;;;;;;10.00;1.70;;;24.50;99.90;;;;;;5020357;28;20053;-63
2023/02/06 09:11:19;;;;;;;8.07;2.47;;;24.50;99.90;;;;;;5014967;28;20028;-62
2023/02/06 09:13:48;;;;;;;12.07;2.10;;;24.50;99.90;;;;;;4999038;28;20053;-63
2023/02/06 09:16:17;;;;;;;16.23;3.45;;;24.50;99.90;;;;;;5008072;28;20032;-64
2023/02/06 09:18:45;;;;;;;15.75;1.92;;;24.50;99.90;;;;;;5017338;28;20022;-62
2023/02/06 09:21:18;;;;;;;14.07;1.85;;;24.40;99.90;;;;;;4998687;28;20033;-62
2023/02/06 09:23:48;;;;;;;8.15;2.00;;;24.40;99.90;;;;;;5008046;28;20033;-63
2023/02/06 09:26:19;;;;;;;12.52;2.35;;;24.40;99.90;;;;;;5014598;28;20037;-63
2023/02/06 09:28:46;;;;;;;14.18;2.47;;;24.40;99.90;;;;;;5013932;28;20476;-62
2023/02/06 09:31:14;;;;;;;13.52;1.92;;;24.40;99.90;;;;;;5007604;28;20386;-62
2023/02/06 09:33:41;;;;;;;15.57;3.20;;;24.30;99.90;;;;;;5003418;28;20498;-59
2023/02/06 09:36:11;;;;;;;14.73;1.75;;;24.40;99.90;;;;;;5008094;28;20039;-59
2023/02/06 09:38:41;;;;;;;8.95;1.75;;;24.40;99.90;;;;;;5006701;28;20111;-60
2023/02/06 09:41:23;;;;;;;11.25;2.20;;;24.40;99.90;;;;;;5015471;28;20434;-59
2023/02/06 09:43:57;;;;;;;12.70;3.15;;;24.30;99.90;;;;;;5015226;28;20511;-60
2023/02/06 09:46:30;;;;;;;11.10;2.22;;;24.30;99.90;;;;;;5008274;28;20436;-61
2023/02/06 09:48:59;;;;;;;15.50;2.75;;;24.30;99.90;;;;;;5009975;28;20029;-60
2023/02/06 09:51:51;;;;;;;15.82;3.33;;;24.30;99.90;;;;;;4989799;28;20466;-61
2023/02/06 09:54:45;;;;;;;17.38;2.70;;;24.20;99.90;;;;;;5009024;28;20026;-61
2023/02/06 09:57:33;;;;;;;16.58;2.75;;;24.20;99.90;;;;;;5002463;28;20085;-60
2023/02/06 10:00:35;;;;;;;11.32;2.15;;;24.20;99.90;;;;;;5010533;28;20030;-60
2023/02/06 10:03:20;;;;;;;7.97;2.22;;;24.20;99.90;;;;;;5001087;28;20382;-60
2023/02/06 10:06:05;;;;;;;9.43;2.00;;;24.20;99.90;;;;;;5014924;28;20076;-60
2023/02/06 10:08:57;;;;;;;10.13;2.10;;;24.20;99.90;;;;;;5019919;28;20045;-60
2023/02/06 10:11:53;;;;;;;11.98;2.28;;;24.10;99.90;;;;;;5012998;28;20030;-61
2023/02/06 10:14:23;;;;;;;10.80;1.92;;;24.10;99.90;;;;;;5000828;28;20053;-60
2023/02/06 10:17:15;;;;;;;8.23;1.85;;;24.00;99.90;;;;;;5005950;28;20108;-60
2023/02/06 10:20:11;;;;;;;15.18;2.22;;;23.90;99.90;;;;;;5008221;28;20398;-60
2023/02/06 10:22:38;;;;;;;10.27;2.53;;;23.90;99.90;;;;;;5015194;28;20026;-61
2023/02/06 10:25:14;;;;;;;11.73;2.78;;;23.90;99.90;;;;;;5009080;28;20034;-60
2023/02/06 10:27:44;;;;;;;12.88;2.00;;;23.90;99.90;;;;;;5002165;28;20076;-60
2023/02/06 10:30:23;;;;;;;9.50;2.10;;;23.90;99.90;;;;;;5017811;28;20442;-59
2023/02/06 10:33:05;;;;;;;15.52;3.30;;;23.80;99.90;;;;;;4988015;28;20025;-59
2023/02/06 10:35:59;;;;;;;10.45;2.22;;;23.90;99.90;;;;;;5009653;28;20076;-61
2023/02/06 10:39:13;;;;;;;13.10;1.90;;;23.80;99.90;;;;;;5007766;28;20449;-60
2023/02/06 10:41:52;;;;;;;13.98;3.53;;;23.80;99.90;;;;;;4969247;28;20110;-62
2023/02/06 10:44:38;;;;;;;23.60;2.75;;;23.80;99.90;;;;;;4965826;28;20412;-60
2023/02/06 10:47:19;;;;;;;6.78;1.70;;;23.80;99.90;;;;;;4998362;28;20085;-59
2023/02/06 10:49:51;;;;;;;13.27;1.90;;;23.80;99.90;;;;;;5014136;28;20025;-59
2023/02/06 10:52:22;;;;;;;12.43;2.00;;;23.80;99.90;;;;;;5009304;28;20081;-59
2023/02/06 10:54:58;;;;;;;14.60;2.30;;;23.80;99.90;;;;;;5006359;28;20025;-59
2023/02/06 10:57:30;;;;;;;7.03;2.10;;;23.80;99.90;;;;;;5007343;28;20553;-59
2023/02/06 11:00:03;;;;;;;11.93;2.45;;;23.80;99.90;;;;;;5010075;28;20014;-59
2023/02/06 11:02:49;;;;;;;12.63;1.77;;;23.80;99.90;;;;;;5008685;28;20076;-59
2023/02/06 11:05:24;;;;;;;10.10;2.03;;;23.80;99.90;;;;;;5007584;28;20394;-59
2023/02/06 11:08:17;;;;;;;10.80;2.00;;;23.80;99.90;;;;;;5010029;28;20029;-59
2023/02/06 11:10:45;;;;;;;6.70;1.70;;;23.80;99.90;;;;;;5006462;28;20148;-60
2023/02/06 11:13:21;;;;;;;9.75;2.20;;;23.80;99.90;;;;;;5018387;28;20030;-59
2023/02/06 11:16:01;;;;;;;12.27;2.10;;;23.80;99.90;;;;;;5007924;28;20042;-59
2023/02/06 11:18:33;;;;;;;11.93;2.05;;;23.80;99.90;;;;;;5021442;28;20026;-59
2023/02/06 11:21:01;;;;;;;15.10;2.35;;;23.70;99.90;;;;;;5023034;28;20044;-59
2023/02/06 11:23:30;;;;;;;9.23;1.88;;;23.70;99.90;;;;;;5019584;28;20098;-59
2023/02/06 11:26:14;;;;;;;6.65;1.90;;;23.70;99.90;;;;;;5022987;28;20391;-59
2023/02/06 11:29:16;;;;;;;16.02;2.38;;;23.70;99.90;;;;;;5012630;28;20030;-60
2023/02/06 11:31:58;;;;;;;10.88;2.10;;;23.70;99.90;;;;;;5013923;28;20018;-60
2023/02/06 11:34:36;;;;;;;13.63;2.22;;;23.70;99.90;;;;;;5017870;28;20034;-59
2023/02/06 11:37:06;;;;;;;6.32;1.58;;;23.70;99.90;;;;;;4996839;28;20110;-59
2023/02/06 11:39:36;;;;;;;10.27;2.65;;;23.70;99.90;;;;;;5011291;28;20022;-60
2023/02/06 11:42:17;;;;;;;12.43;1.88;;;23.60;99.90;;;;;;5027361;28;20018;-59
2023/02/06 11:44:50;;;;;;;12.52;2.20;;;23.60;99.90;;;;;;5016145;28;20025;-59
2023/02/06 11:47:32;;;;;;;15.30;2.60;;;23.60;99.90;;;;;;5011643;28;20037;-59
2023/02/06 11:50:32;;;;;;;12.90;2.10;;;23.60;99.90;;;;;;5020054;28;20512;-59
2023/02/06 11:53:09;;;;;;;5.40;1.45;;;23.60;99.90;;;;;;5001684;28;20507;-59
2023/02/06 11:55:38;;;;;;;11.00;2.80;;;23.60;99.90;;;;;;5017103;28;20026;-58
2023/02/06 11:58:09;;;;;;;8.57;1.95;;;23.60;99.90;;;;;;5015748;28;20033;-59
2023/02/06 12:00:37;;;;;;;10.02;2.22;;;23.60;99.90;;;;;;5011890;28;20383;-59
2023/02/06 12:03:06;;;;;;;16.10;2.10;;;23.60;99.90;;;;;;5022202;28;20036;-59
2023/02/06 12:05:39;;;;;;;16.17;2.28;;;23.60;99.90;;;;;;5014668;28;20030;-59
2023/02/06 12:08:12;;;;;;;14.95;3.20;;;23.60;99.90;;;;;;5011273;28;20041;-59
2023/02/06 12:10:59;;;;;;;9.48;2.50;;;23.60;99.90;;;;;;5018127;28;20022;-60
2023/02/06 12:13:38;;;;;;;10.05;2.05;;;23.60;99.90;;;;;;5012306;28;20115;-58
2023/02/06 12:16:07;;;;;;;15.23;2.80;;;23.50;99.90;;;;;;5010800;28;20486;-59
2023/02/06 12:18:38;;;;;;;10.85;2.20;;;23.60;99.90;;;;;;5020103;28;20026;-59
2023/02/06 12:21:13;;;;;;;18.98;2.83;;;23.50;99.90;;;;;;5011771;28;20092;-59
2023/02/06 12:23:42;;;;;;;;;;;23.50;99.90;;;;;;4988256;28;20026;-59
2023/02/06 12:26:22;;;;;;;7.68;1.83;;;23.50;99.90;;;;;;4999870;28;19936;-59
2023/02/06 12:29:21;;;;;;;12.70;2.88;;;23.50;99.90;;;;;;5018305;28;20590;-59
2023/02/06 12:32:04;;;;;;;10.38;1.92;;;23.50;99.90;;;;;;5010748;28;20510;-58
2023/02/06 12:34:52;;;;;;;15.95;2.22;;;23.40;99.90;;;;;;5016714;28;20091;-58
2023/02/06 12:37:45;;;;;;;13.10;2.28;;;23.40;99.90;;;;;;5016121;28;20125;-59
2023/02/06 12:40:37;;;;;;;8.20;2.13;;;23.40;99.90;;;;;;5009059;28;20026;-59
2023/02/06 12:43:14;;;;;;;15.50;3.75;;;23.30;99.90;;;;;;5009682;28;20034;-58
2023/02/06 12:46:08;;;;;;;13.38;2.28;;;23.30;99.90;;;;;;5012463;28;20057;-58
2023/02/06 12:48:41;;;;;;;13.77;2.38;;;23.30;99.90;;;;;;4986771;28;20047;-57
2023/02/06 12:51:19;;;;;;;11.80;1.83;;;23.20;99.90;;;;;;5009354;28;20064;-59
2023/02/06 12:53:55;;;;;;;13.88;3.35;;;23.10;99.90;;;;;;5019372;28;20025;-58
2023/02/06 12:56:31;;;;;;;12.05;1.75;;;23.10;99.90;;;;;;5011537;28;20026;-58
2023/02/06 12:59:24;;;;;;;12.82;3.10;;;23.00;99.90;;;;;;5020861;28;20505;-59
2023/02/06 13:01:59;;;;;;;14.38;2.50;;;23.00;99.90;;;;;;5009265;28;20026;-59
2023/02/06 13:04:33;;;;;;;12.38;2.65;;;22.90;99.90;;;;;;5009196;28;20060;-60
2023/02/06 13:07:09;;;;;;;16.40;1.80;;;22.90;99.90;;;;;;5009227;28;20041;-59
2023/02/06 13:09:46;;;;;;;12.60;1.83;;;22.90;99.90;;;;;;5010935;28;20811;-60
2023/02/06 13:12:20;;;;;;;10.75;3.08;;;22.90;99.90;;;;;;5010664;28;20456;-59